sensor_id;sensor_type;location;lat;lon;timestamp;temperature;humidity
31729;DHT22;18309;43.658;1.312;2022-09-09T00:04:03;22.60;93.90
31729;DHT22;18309;43.658;1.312;2022-09-09T00:09:16;22.60;93.60
31729;DHT22;18309;43.658;1.312;2022-09-09T00:11:43;22.60;93.60
31729;DHT22;18309;43.658;1.312;2022-09-09T00:14:26;22.60;93.60
31729;DHT22;18309;43.658;1.312;2022-09-09T00:17:01;22.60;93.60
31729;DHT22;18309;43.658;1.312;2022-09-09T00:19:37;22.60;93.70
31729;DHT22;18309;43.658;1.312;2022-09-09T00:22:14;22.60;94.00
31729;DHT22;18309;43.658;1.312;2022-09-09T00:24:46;22.50;93.90
31729;DHT22;18309;43.658;1.312;2022-09-09T00:27:46;22.50;94.20
31729;DHT22;18309;43.658;1.312;2022-09-09T00:32:44;22.40;94.40
31729;DHT22;18309;43.658;1.312;2022-09-09T00:37:35;22.40;94.40
31729;DHT22;18309;43.658;1.312;2022-09-09T00:40:06;22.40;94.30
31729;DHT22;18309;43.658;1.312;2022-09-09T00:42:41;22.40;94.60
31729;DHT22;18309;43.658;1.312;2022-09-09T00:48:14;22.30;94.50
31729;DHT22;18309;43.658;1.312;2022-09-09T00:50:55;22.30;94.50
31729;DHT22;18309;43.658;1.312;2022-09-09T00:56:20;22.30;94.20
31729;DHT22;18309;43.658;1.312;2022-09-09T01:01:25;22.30;94.40
31729;DHT22;18309;43.658;1.312;2022-09-09T01:03:56;22.30;94.40
31729;DHT22;18309;43.658;1.312;2022-09-09T01:09:17;22.30;94.50
31729;DHT22;18309;43.658;1.312;2022-09-09T01:14:49;22.20;94.40
31729;DHT22;18309;43.658;1.312;2022-09-09T01:28:18;22.10;94.40
31729;DHT22;18309;43.658;1.312;2022-09-09T01:30:44;22.10;94.30
31729;DHT22;18309;43.658;1.312;2022-09-09T01:33:18;22.10;94.50
31729;DHT22;18309;43.658;1.312;2022-09-09T01:38:10;22.10;94.70
31729;DHT22;18309;43.658;1.312;2022-09-09T01:40:37;22.10;94.80
31729;DHT22;18309;43.658;1.312;2022-09-09T01:43:03;22.10;94.70
31729;DHT22;18309;43.658;1.312;2022-09-09T01:45:29;22.10;94.70
31729;DHT22;18309;43.658;1.312;2022-09-09T01:47:56;22.10;94.70
31729;DHT22;18309;43.658;1.312;2022-09-09T01:59:52;22.00;95.40
31729;DHT22;18309;43.658;1.312;2022-09-09T02:07:53;22.00;95.30
31729;DHT22;18309;43.658;1.312;2022-09-09T02:10:32;22.00;95.40
31729;DHT22;18309;43.658;1.312;2022-09-09T02:13:09;22.00;95.40
31729;DHT22;18309;43.658;1.312;2022-09-09T02:18:10;22.00;95.30
31729;DHT22;18309;43.658;1.312;2022-09-09T02:20:38;21.90;95.60
31729;DHT22;18309;43.658;1.312;2022-09-09T02:23:07;21.90;95.60
31729;DHT22;18309;43.658;1.312;2022-09-09T02:25:36;21.90;95.60
31729;DHT22;18309;43.658;1.312;2022-09-09T02:28:04;21.90;95.50
31729;DHT22;18309;43.658;1.312;2022-09-09T02:30:32;21.90;95.60
31729;DHT22;18309;43.658;1.312;2022-09-09T02:33:01;21.80;95.60
31729;DHT22;18309;43.658;1.312;2022-09-09T02:35:28;21.80;95.70
31729;DHT22;18309;43.658;1.312;2022-09-09T02:37:59;21.80;95.70
31729;DHT22;18309;43.658;1.312;2022-09-09T02:40:25;21.80;95.60
31729;DHT22;18309;43.658;1.312;2022-09-09T02:42:50;21.80;95.70
31729;DHT22;18309;43.658;1.312;2022-09-09T02:45:19;21.80;95.70
31729;DHT22;18309;43.658;1.312;2022-09-09T02:58:09;21.70;96.10
31729;DHT22;18309;43.658;1.312;2022-09-09T03:00:38;21.70;96.20
31729;DHT22;18309;43.658;1.312;2022-09-09T03:03:06;21.70;96.00
31729;DHT22;18309;43.658;1.312;2022-09-09T03:05:32;21.60;95.90
31729;DHT22;18309;43.658;1.312;2022-09-09T03:07:58;21.60;95.90
31729;DHT22;18309;43.658;1.312;2022-09-09T03:10:24;21.60;96.10
31729;DHT22;18309;43.658;1.312;2022-09-09T03:12:49;21.60;96.20
31729;DHT22;18309;43.658;1.312;2022-09-09T03:15:16;21.60;96.30
31729;DHT22;18309;43.658;1.312;2022-09-09T03:17:41;21.60;96.30
31729;DHT22;18309;43.658;1.312;2022-09-09T03:20:07;21.60;96.30
31729;DHT22;18309;43.658;1.312;2022-09-09T03:22:34;21.50;96.30
31729;DHT22;18309;43.658;1.312;2022-09-09T03:25:00;21.60;96.30
31729;DHT22;18309;43.658;1.312;2022-09-09T03:27:28;21.50;96.30
31729;DHT22;18309;43.658;1.312;2022-09-09T03:29:54;21.50;96.30
31729;DHT22;18309;43.658;1.312;2022-09-09T03:32:21;21.50;96.30
31729;DHT22;18309;43.658;1.312;2022-09-09T03:34:48;21.50;96.40
31729;DHT22;18309;43.658;1.312;2022-09-09T03:37:16;21.50;96.40
31729;DHT22;18309;43.658;1.312;2022-09-09T03:39:43;21.50;96.40
31729;DHT22;18309;43.658;1.312;2022-09-09T03:42:09;21.50;96.70
31729;DHT22;18309;43.658;1.312;2022-09-09T03:44:34;21.50;96.70
31729;DHT22;18309;43.658;1.312;2022-09-09T03:47:00;21.50;96.50
31729;DHT22;18309;43.658;1.312;2022-09-09T03:49:26;21.50;96.60
31729;DHT22;18309;43.658;1.312;2022-09-09T03:51:57;21.40;96.80
31729;DHT22;18309;43.658;1.312;2022-09-09T03:54:24;21.40;96.80
31729;DHT22;18309;43.658;1.312;2022-09-09T03:56:50;21.40;97.00
31729;DHT22;18309;43.658;1.312;2022-09-09T03:59:16;21.40;97.00
31729;DHT22;18309;43.658;1.312;2022-09-09T04:01:42;21.40;97.30
31729;DHT22;18309;43.658;1.312;2022-09-09T04:04:08;21.40;97.10
31729;DHT22;18309;43.658;1.312;2022-09-09T04:06:35;21.40;97.10
31729;DHT22;18309;43.658;1.312;2022-09-09T04:09:00;21.40;97.20
31729;DHT22;18309;43.658;1.312;2022-09-09T04:11:28;21.30;97.30
31729;DHT22;18309;43.658;1.312;2022-09-09T04:13:53;21.40;97.50
31729;DHT22;18309;43.658;1.312;2022-09-09T04:16:19;21.40;97.60
31729;DHT22;18309;43.658;1.312;2022-09-09T04:18:45;21.40;97.70
31729;DHT22;18309;43.658;1.312;2022-09-09T04:21:11;21.30;97.90
31729;DHT22;18309;43.658;1.312;2022-09-09T04:23:38;21.30;97.90
31729;DHT22;18309;43.658;1.312;2022-09-09T04:26:05;21.30;98.00
31729;DHT22;18309;43.658;1.312;2022-09-09T04:28:33;21.30;98.10
31729;DHT22;18309;43.658;1.312;2022-09-09T04:31:10;21.20;98.20
31729;DHT22;18309;43.658;1.312;2022-09-09T04:33:36;21.20;98.40
31729;DHT22;18309;43.658;1.312;2022-09-09T04:36:03;21.20;98.70
31729;DHT22;18309;43.658;1.312;2022-09-09T04:38:29;21.20;98.90
31729;DHT22;18309;43.658;1.312;2022-09-09T04:40:55;21.20;99.20
31729;DHT22;18309;43.658;1.312;2022-09-09T04:43:21;21.10;99.30
31729;DHT22;18309;43.658;1.312;2022-09-09T04:45:50;21.20;99.50
31729;DHT22;18309;43.658;1.312;2022-09-09T04:48:17;21.10;99.30
31729;DHT22;18309;43.658;1.312;2022-09-09T04:50:42;21.10;99.20
31729;DHT22;18309;43.658;1.312;2022-09-09T04:53:08;21.10;99.20
31729;DHT22;18309;43.658;1.312;2022-09-09T04:55:35;21.10;99.40
31729;DHT22;18309;43.658;1.312;2022-09-09T04:58:05;21.10;99.40
31729;DHT22;18309;43.658;1.312;2022-09-09T05:00:31;21.10;99.50
31729;DHT22;18309;43.658;1.312;2022-09-09T05:02:57;21.10;99.50
31729;DHT22;18309;43.658;1.312;2022-09-09T05:05:23;21.10;99.30
31729;DHT22;18309;43.658;1.312;2022-09-09T05:07:49;21.10;99.20
31729;DHT22;18309;43.658;1.312;2022-09-09T05:10:14;21.00;98.90
31729;DHT22;18309;43.658;1.312;2022-09-09T05:12:41;21.10;99.00
31729;DHT22;18309;43.658;1.312;2022-09-09T05:15:07;21.10;99.10
31729;DHT22;18309;43.658;1.312;2022-09-09T05:17:33;21.00;99.30
31729;DHT22;18309;43.658;1.312;2022-09-09T05:19:59;21.00;99.30
31729;DHT22;18309;43.658;1.312;2022-09-09T05:22:24;21.00;99.30
31729;DHT22;18309;43.658;1.312;2022-09-09T05:24:50;21.00;99.40
31729;DHT22;18309;43.658;1.312;2022-09-09T05:27:19;21.00;99.50
31729;DHT22;18309;43.658;1.312;2022-09-09T05:29:45;21.00;99.50
31729;DHT22;18309;43.658;1.312;2022-09-09T05:32:11;21.00;99.70
31729;DHT22;18309;43.658;1.312;2022-09-09T05:34:37;21.00;99.80
31729;DHT22;18309;43.658;1.312;2022-09-09T05:37:03;21.00;99.90
31729;DHT22;18309;43.658;1.312;2022-09-09T05:39:30;20.70;99.90
31729;DHT22;18309;43.658;1.312;2022-09-09T05:41:55;20.50;99.90
31729;DHT22;18309;43.658;1.312;2022-09-09T05:44:21;20.30;99.90
31729;DHT22;18309;43.658;1.312;2022-09-09T05:46:49;20.00;99.90
31729;DHT22;18309;43.658;1.312;2022-09-09T05:49:15;19.90;99.90
31729;DHT22;18309;43.658;1.312;2022-09-09T05:51:41;19.70;99.90
31729;DHT22;18309;43.658;1.312;2022-09-09T05:54:08;19.70;99.90
31729;DHT22;18309;43.658;1.312;2022-09-09T05:56:34;19.60;99.90
31729;DHT22;18309;43.658;1.312;2022-09-09T05:59:00;19.30;99.90
31729;DHT22;18309;43.658;1.312;2022-09-09T06:01:28;19.30;99.90
31729;DHT22;18309;43.658;1.312;2022-09-09T06:03:54;19.30;99.90
31729;DHT22;18309;43.658;1.312;2022-09-09T06:06:25;19.10;99.90
31729;DHT22;18309;43.658;1.312;2022-09-09T06:08:54;19.00;99.90
31729;DHT22;18309;43.658;1.312;2022-09-09T06:11:27;19.00;99.90
31729;DHT22;18309;43.658;1.312;2022-09-09T06:13:52;18.90;99.90
31729;DHT22;18309;43.658;1.312;2022-09-09T06:16:21;19.10;99.90
31729;DHT22;18309;43.658;1.312;2022-09-09T06:18:52;19.10;99.90
31729;DHT22;18309;43.658;1.312;2022-09-09T06:21:26;19.00;99.90
31729;DHT22;18309;43.658;1.312;2022-09-09T06:23:52;19.00;99.90
31729;DHT22;18309;43.658;1.312;2022-09-09T06:26:26;19.10;99.90
31729;DHT22;18309;43.658;1.312;2022-09-09T06:28:54;19.20;99.90
31729;DHT22;18309;43.658;1.312;2022-09-09T06:31:22;19.10;99.90
31729;DHT22;18309;43.658;1.312;2022-09-09T06:33:50;19.10;99.90
31729;DHT22;18309;43.658;1.312;2022-09-09T06:36:37;19.20;99.90
31729;DHT22;18309;43.658;1.312;2022-09-09T06:39:03;19.40;99.90
31729;DHT22;18309;43.658;1.312;2022-09-09T06:41:30;19.70;99.90
31729;DHT22;18309;43.658;1.312;2022-09-09T06:43:56;19.70;99.90
31729;DHT22;18309;43.658;1.312;2022-09-09T06:46:27;19.60;99.90
31729;DHT22;18309;43.658;1.312;2022-09-09T06:48:53;19.40;99.90
31729;DHT22;18309;43.658;1.312;2022-09-09T06:51:24;19.30;99.90
31729;DHT22;18309;43.658;1.312;2022-09-09T06:53:52;19.30;99.90
31729;DHT22;18309;43.658;1.312;2022-09-09T06:56:32;19.20;99.90
31729;DHT22;18309;43.658;1.312;2022-09-09T06:59:00;19.20;99.90
31729;DHT22;18309;43.658;1.312;2022-09-09T07:01:31;19.30;99.90
31729;DHT22;18309;43.658;1.312;2022-09-09T07:03:58;19.30;99.90
31729;DHT22;18309;43.658;1.312;2022-09-09T07:06:32;19.40;99.90
31729;DHT22;18309;43.658;1.312;2022-09-09T07:09:00;19.30;99.90
31729;DHT22;18309;43.658;1.312;2022-09-09T07:11:32;19.40;99.90
31729;DHT22;18309;43.658;1.312;2022-09-09T07:13:59;19.40;99.90
31729;DHT22;18309;43.658;1.312;2022-09-09T07:16:26;19.50;99.90
31729;DHT22;18309;43.658;1.312;2022-09-09T07:18:57;19.40;99.90
31729;DHT22;18309;43.658;1.312;2022-09-09T07:21:23;19.50;99.90
31729;DHT22;18309;43.658;1.312;2022-09-09T07:23:49;19.50;99.90
31729;DHT22;18309;43.658;1.312;2022-09-09T07:26:20;19.50;99.90
31729;DHT22;18309;43.658;1.312;2022-09-09T07:28:47;19.50;99.90
31729;DHT22;18309;43.658;1.312;2022-09-09T07:33:50;19.80;99.90
31729;DHT22;18309;43.658;1.312;2022-09-09T07:36:24;19.70;99.90
31729;DHT22;18309;43.658;1.312;2022-09-09T07:38:53;19.70;99.90
31729;DHT22;18309;43.658;1.312;2022-09-09T07:41:28;19.60;99.90
31729;DHT22;18309;43.658;1.312;2022-09-09T07:43:55;19.60;99.90
31729;DHT22;18309;43.658;1.312;2022-09-09T07:46:22;19.50;99.90
31729;DHT22;18309;43.658;1.312;2022-09-09T07:48:51;19.40;99.90
31729;DHT22;18309;43.658;1.312;2022-09-09T07:51:19;19.40;99.90
31729;DHT22;18309;43.658;1.312;2022-09-09T07:53:47;19.40;99.90
31729;DHT22;18309;43.658;1.312;2022-09-09T07:56:15;19.50;99.90
31729;DHT22;18309;43.658;1.312;2022-09-09T07:58:47;19.50;99.90
31729;DHT22;18309;43.658;1.312;2022-09-09T08:01:16;19.40;99.90
31729;DHT22;18309;43.658;1.312;2022-09-09T08:03:44;19.30;99.90
31729;DHT22;18309;43.658;1.312;2022-09-09T08:06:10;19.30;99.90
31729;DHT22;18309;43.658;1.312;2022-09-09T08:08:38;19.40;99.90
31729;DHT22;18309;43.658;1.312;2022-09-09T08:11:12;19.40;99.90
31729;DHT22;18309;43.658;1.312;2022-09-09T08:13:44;19.30;99.90
31729;DHT22;18309;43.658;1.312;2022-09-09T08:16:26;19.30;99.90
31729;DHT22;18309;43.658;1.312;2022-09-09T08:18:52;19.20;99.90
31729;DHT22;18309;43.658;1.312;2022-09-09T08:21:22;19.20;99.90
31729;DHT22;18309;43.658;1.312;2022-09-09T08:23:50;19.30;99.90
31729;DHT22;18309;43.658;1.312;2022-09-09T08:26:37;19.20;99.90
31729;DHT22;18309;43.658;1.312;2022-09-09T08:29:05;19.30;99.90
31729;DHT22;18309;43.658;1.312;2022-09-09T08:31:53;19.10;99.90
31729;DHT22;18309;43.658;1.312;2022-09-09T08:34:20;19.10;99.90
31729;DHT22;18309;43.658;1.312;2022-09-09T08:36:47;19.30;99.90
31729;DHT22;18309;43.658;1.312;2022-09-09T08:39:15;19.10;99.90
31729;DHT22;18309;43.658;1.312;2022-09-09T08:44:11;18.90;99.90
31729;DHT22;18309;43.658;1.312;2022-09-09T08:52:43;19.90;99.90
31729;DHT22;18309;43.658;1.312;2022-09-09T08:58:09;19.80;99.90
31729;DHT22;18309;43.658;1.312;2022-09-09T09:08:55;18.20;99.90
31729;DHT22;18309;43.658;1.312;2022-09-09T09:11:22;18.00;99.90
31729;DHT22;18309;43.658;1.312;2022-09-09T09:14:01;17.80;99.90
31729;DHT22;18309;43.658;1.312;2022-09-09T09:18:58;18.10;99.90
31729;DHT22;18309;43.658;1.312;2022-09-09T09:21:39;18.70;99.90
31729;DHT22;18309;43.658;1.312;2022-09-09T09:24:16;18.80;99.90
31729;DHT22;18309;43.658;1.312;2022-09-09T09:26:43;18.90;99.90
31729;DHT22;18309;43.658;1.312;2022-09-09T09:29:16;18.90;99.90
31729;DHT22;18309;43.658;1.312;2022-09-09T09:31:53;18.60;99.90
31729;DHT22;18309;43.658;1.312;2022-09-09T09:34:22;18.70;99.90
31729;DHT22;18309;43.658;1.312;2022-09-09T09:37:00;18.90;99.90
31729;DHT22;18309;43.658;1.312;2022-09-09T09:39:31;18.80;99.90
31729;DHT22;18309;43.658;1.312;2022-09-09T09:42:12;18.50;99.90
31729;DHT22;18309;43.658;1.312;2022-09-09T09:44:40;18.30;99.90
31729;DHT22;18309;43.658;1.312;2022-09-09T09:47:13;18.10;99.90
31729;DHT22;18309;43.658;1.312;2022-09-09T09:49:54;17.90;99.90
31729;DHT22;18309;43.658;1.312;2022-09-09T09:52:28;17.50;99.90
31729;DHT22;18309;43.658;1.312;2022-09-09T09:54:56;17.40;99.90
31729;DHT22;18309;43.658;1.312;2022-09-09T09:57:40;17.20;99.90
31729;DHT22;18309;43.658;1.312;2022-09-09T10:00:16;17.00;99.90
31729;DHT22;18309;43.658;1.312;2022-09-09T10:02:44;17.00;99.90
31729;DHT22;18309;43.658;1.312;2022-09-09T10:05:16;17.00;99.90
31729;DHT22;18309;43.658;1.312;2022-09-09T10:07:43;17.00;99.90
31729;DHT22;18309;43.658;1.312;2022-09-09T10:10:24;17.00;99.90
31729;DHT22;18309;43.658;1.312;2022-09-09T10:15:56;17.10;99.90
31729;DHT22;18309;43.658;1.312;2022-09-09T10:18:58;17.10;99.90
31729;DHT22;18309;43.658;1.312;2022-09-09T10:32:48;17.70;99.90
31729;DHT22;18309;43.658;1.312;2022-09-09T10:35:27;17.90;99.90
31729;DHT22;18309;43.658;1.312;2022-09-09T10:38:18;17.90;99.90
31729;DHT22;18309;43.658;1.312;2022-09-09T10:43:46;18.00;99.90
31729;DHT22;18309;43.658;1.312;2022-09-09T10:46:45;18.20;99.90
31729;DHT22;18309;43.658;1.312;2022-09-09T10:52:04;18.40;99.90
31729;DHT22;18309;43.658;1.312;2022-09-09T10:57:41;18.20;99.90
31729;DHT22;18309;43.658;1.312;2022-09-09T11:00:31;18.30;99.90
31729;DHT22;18309;43.658;1.312;2022-09-09T11:03:02;18.40;99.90
31729;DHT22;18309;43.658;1.312;2022-09-09T11:05:41;18.10;99.90
31729;DHT22;18309;43.658;1.312;2022-09-09T11:08:21;17.90;99.90
31729;DHT22;18309;43.658;1.312;2022-09-09T11:13:51;18.10;99.90
31729;DHT22;18309;43.658;1.312;2022-09-09T11:16:49;17.90;99.90
31729;DHT22;18309;43.658;1.312;2022-09-09T11:19:44;18.10;99.90
31729;DHT22;18309;43.658;1.312;2022-09-09T11:22:37;18.20;99.90
31729;DHT22;18309;43.658;1.312;2022-09-09T11:25:23;18.40;99.90
31729;DHT22;18309;43.658;1.312;2022-09-09T11:30:22;18.50;99.90
31729;DHT22;18309;43.658;1.312;2022-09-09T11:38:56;18.60;99.90
31729;DHT22;18309;43.658;1.312;2022-09-09T11:41:34;18.50;99.90
31729;DHT22;18309;43.658;1.312;2022-09-09T11:44:15;18.40;99.90
31729;DHT22;18309;43.658;1.312;2022-09-09T11:46:43;18.50;99.90
31729;DHT22;18309;43.658;1.312;2022-09-09T11:49:30;18.70;99.90
31729;DHT22;18309;43.658;1.312;2022-09-09T11:52:25;18.60;99.90
31729;DHT22;18309;43.658;1.312;2022-09-09T11:57:46;18.90;99.90
31729;DHT22;18309;43.658;1.312;2022-09-09T12:00:35;18.90;99.90
31729;DHT22;18309;43.658;1.312;2022-09-09T12:03:03;19.00;99.90
31729;DHT22;18309;43.658;1.312;2022-09-09T12:05:44;19.00;99.90
31729;DHT22;18309;43.658;1.312;2022-09-09T12:08:15;19.10;99.90
31729;DHT22;18309;43.658;1.312;2022-09-09T12:10:56;19.20;99.90
31729;DHT22;18309;43.658;1.312;2022-09-09T12:13:24;19.10;99.90
31729;DHT22;18309;43.658;1.312;2022-09-09T12:15:58;18.90;99.90
31729;DHT22;18309;43.658;1.312;2022-09-09T12:18:38;19.10;99.90
31729;DHT22;18309;43.658;1.312;2022-09-09T12:21:33;19.30;99.90
31729;DHT22;18309;43.658;1.312;2022-09-09T12:24:11;19.40;99.90
31729;DHT22;18309;43.658;1.312;2022-09-09T12:26:42;19.50;99.90
31729;DHT22;18309;43.658;1.312;2022-09-09T12:37:18;19.70;99.90
31729;DHT22;18309;43.658;1.312;2022-09-09T12:40:20;19.90;99.90
31729;DHT22;18309;43.658;1.312;2022-09-09T12:42:46;20.00;99.90
31729;DHT22;18309;43.658;1.312;2022-09-09T12:48:03;20.10;99.90
31729;DHT22;18309;43.658;1.312;2022-09-09T12:50:34;20.20;99.90
31729;DHT22;18309;43.658;1.312;2022-09-09T12:53:08;20.40;99.90
31729;DHT22;18309;43.658;1.312;2022-09-09T12:55:38;20.50;99.90
31729;DHT22;18309;43.658;1.312;2022-09-09T12:58:05;20.20;99.90
31729;DHT22;18309;43.658;1.312;2022-09-09T13:00:33;20.10;99.90
31729;DHT22;18309;43.658;1.312;2022-09-09T13:03:01;20.30;99.90
31729;DHT22;18309;43.658;1.312;2022-09-09T13:05:37;20.30;99.90
31729;DHT22;18309;43.658;1.312;2022-09-09T13:08:10;20.50;99.90
31729;DHT22;18309;43.658;1.312;2022-09-09T13:13:15;20.20;99.90
31729;DHT22;18309;43.658;1.312;2022-09-09T13:15:50;20.30;99.90
31729;DHT22;18309;43.658;1.312;2022-09-09T13:18:20;20.60;99.90
31729;DHT22;18309;43.658;1.312;2022-09-09T13:20:50;20.70;99.90
31729;DHT22;18309;43.658;1.312;2022-09-09T13:23:18;21.10;99.90
31729;DHT22;18309;43.658;1.312;2022-09-09T13:26:05;20.90;99.90
31729;DHT22;18309;43.658;1.312;2022-09-09T13:28:33;20.80;99.90
31729;DHT22;18309;43.658;1.312;2022-09-09T13:31:04;21.20;99.90
31729;DHT22;18309;43.658;1.312;2022-09-09T13:33:31;21.30;99.90
31729;DHT22;18309;43.658;1.312;2022-09-09T13:36:03;21.20;99.90
31729;DHT22;18309;43.658;1.312;2022-09-09T13:38:32;21.40;99.90
31729;DHT22;18309;43.658;1.312;2022-09-09T13:41:07;21.40;99.90
31729;DHT22;18309;43.658;1.312;2022-09-09T13:43:38;21.30;99.90
31729;DHT22;18309;43.658;1.312;2022-09-09T13:46:41;21.80;99.90
31729;DHT22;18309;43.658;1.312;2022-09-09T13:51:42;21.90;99.90
31729;DHT22;18309;43.658;1.312;2022-09-09T13:54:13;22.10;99.90
31729;DHT22;18309;43.658;1.312;2022-09-09T13:56:40;22.20;99.90
31729;DHT22;18309;43.658;1.312;2022-09-09T13:59:10;22.10;99.90
31729;DHT22;18309;43.658;1.312;2022-09-09T14:01:36;22.40;99.90
31729;DHT22;18309;43.658;1.312;2022-09-09T14:04:03;23.10;99.90
31729;DHT22;18309;43.658;1.312;2022-09-09T14:06:29;23.30;99.30
31729;DHT22;18309;43.658;1.312;2022-09-09T14:08:55;23.30;98.30
31729;DHT22;18309;43.658;1.312;2022-09-09T14:11:21;23.40;97.80
31729;DHT22;18309;43.658;1.312;2022-09-09T14:13:48;23.60;98.90
31729;DHT22;18309;43.658;1.312;2022-09-09T14:16:16;23.40;98.80
31729;DHT22;18309;43.658;1.312;2022-09-09T14:18:42;23.90;98.00
31729;DHT22;18309;43.658;1.312;2022-09-09T14:21:09;23.30;98.10
31729;DHT22;18309;43.658;1.312;2022-09-09T14:23:35;23.80;97.50
31729;DHT22;18309;43.658;1.312;2022-09-09T14:26:01;23.90;96.80
31729;DHT22;18309;43.658;1.312;2022-09-09T14:28:27;24.40;95.60
31729;DHT22;18309;43.658;1.312;2022-09-09T14:30:54;25.00;94.80
31729;DHT22;18309;43.658;1.312;2022-09-09T14:35:59;26.20;93.10
31729;DHT22;18309;43.658;1.312;2022-09-09T14:38:29;25.30;92.70
31729;DHT22;18309;43.658;1.312;2022-09-09T14:40:55;25.00;94.70
31729;DHT22;18309;43.658;1.312;2022-09-09T14:43:21;25.50;93.70
31729;DHT22;18309;43.658;1.312;2022-09-09T14:45:47;26.70;92.50
31729;DHT22;18309;43.658;1.312;2022-09-09T14:48:17;26.90;91.20
31729;DHT22;18309;43.658;1.312;2022-09-09T14:50:43;27.30;91.10
31729;DHT22;18309;43.658;1.312;2022-09-09T14:53:09;26.90;91.10
31729;DHT22;18309;43.658;1.312;2022-09-09T14:55:36;27.30;91.60
31729;DHT22;18309;43.658;1.312;2022-09-09T14:58:03;26.20;91.30
31729;DHT22;18309;43.658;1.312;2022-09-09T15:00:29;25.30;92.10
31729;DHT22;18309;43.658;1.312;2022-09-09T15:02:55;25.10;92.70
31729;DHT22;18309;43.658;1.312;2022-09-09T15:05:21;25.10;93.10
31729;DHT22;18309;43.658;1.312;2022-09-09T15:07:47;25.30;93.00
31729;DHT22;18309;43.658;1.312;2022-09-09T15:10:16;25.50;92.40
31729;DHT22;18309;43.658;1.312;2022-09-09T15:12:43;25.80;92.10
31729;DHT22;18309;43.658;1.312;2022-09-09T15:15:09;26.00;91.10
31729;DHT22;18309;43.658;1.312;2022-09-09T15:17:35;26.10;91.20
31729;DHT22;18309;43.658;1.312;2022-09-09T15:20:03;26.50;90.90
31729;DHT22;18309;43.658;1.312;2022-09-09T15:22:31;26.50;90.20
31729;DHT22;18309;43.658;1.312;2022-09-09T15:24:57;26.00;90.30
31729;DHT22;18309;43.658;1.312;2022-09-09T15:27:22;25.80;91.30
31729;DHT22;18309;43.658;1.312;2022-09-09T15:29:49;26.30;91.30
31729;DHT22;18309;43.658;1.312;2022-09-09T15:32:15;26.70;91.00
31729;DHT22;18309;43.658;1.312;2022-09-09T15:34:41;27.00;90.30
31729;DHT22;18309;43.658;1.312;2022-09-09T15:37:10;27.20;90.20
31729;DHT22;18309;43.658;1.312;2022-09-09T15:39:39;27.50;89.40
31729;DHT22;18309;43.658;1.312;2022-09-09T15:42:05;26.90;88.80
31729;DHT22;18309;43.658;1.312;2022-09-09T15:44:39;26.70;87.90
31729;DHT22;18309;43.658;1.312;2022-09-09T15:47:05;26.70;87.20
31729;DHT22;18309;43.658;1.312;2022-09-09T15:49:31;26.80;86.80
31729;DHT22;18309;43.658;1.312;2022-09-09T15:51:58;26.70;85.90
31729;DHT22;18309;43.658;1.312;2022-09-09T15:54:32;26.30;87.10
31729;DHT22;18309;43.658;1.312;2022-09-09T15:57:00;26.30;88.30
31729;DHT22;18309;43.658;1.312;2022-09-09T15:59:28;26.10;87.80
31729;DHT22;18309;43.658;1.312;2022-09-09T16:01:55;25.90;88.60
31729;DHT22;18309;43.658;1.312;2022-09-09T16:04:22;25.50;89.90
31729;DHT22;18309;43.658;1.312;2022-09-09T16:09:21;25.20;90.00
31729;DHT22;18309;43.658;1.312;2022-09-09T16:11:47;25.40;90.00
31729;DHT22;18309;43.658;1.312;2022-09-09T16:14:14;25.20;89.70
31729;DHT22;18309;43.658;1.312;2022-09-09T16:16:41;25.30;90.10
31729;DHT22;18309;43.658;1.312;2022-09-09T16:19:09;25.30;90.20
31729;DHT22;18309;43.658;1.312;2022-09-09T16:21:37;25.10;90.10
31729;DHT22;18309;43.658;1.312;2022-09-09T16:24:06;25.00;90.30
31729;DHT22;18309;43.658;1.312;2022-09-09T16:26:34;24.90;90.60
31729;DHT22;18309;43.658;1.312;2022-09-09T16:29:01;24.90;90.90
31729;DHT22;18309;43.658;1.312;2022-09-09T16:31:28;25.10;90.80
31729;DHT22;18309;43.658;1.312;2022-09-09T16:33:55;25.10;90.40
31729;DHT22;18309;43.658;1.312;2022-09-09T16:36:31;25.20;90.40
31729;DHT22;18309;43.658;1.312;2022-09-09T16:38:58;25.10;90.50
31729;DHT22;18309;43.658;1.312;2022-09-09T16:41:25;25.00;90.80
31729;DHT22;18309;43.658;1.312;2022-09-09T16:43:57;24.90;90.70
31729;DHT22;18309;43.658;1.312;2022-09-09T16:46:26;24.60;91.00
31729;DHT22;18309;43.658;1.312;2022-09-09T16:48:53;24.70;91.30
31729;DHT22;18309;43.658;1.312;2022-09-09T16:51:23;24.70;91.30
31729;DHT22;18309;43.658;1.312;2022-09-09T16:53:50;24.60;91.40
31729;DHT22;18309;43.658;1.312;2022-09-09T16:56:21;24.60;91.20
31729;DHT22;18309;43.658;1.312;2022-09-09T16:58:51;24.60;91.30
31729;DHT22;18309;43.658;1.312;2022-09-09T17:01:17;24.70;91.40
31729;DHT22;18309;43.658;1.312;2022-09-09T17:03:44;24.60;91.10
31729;DHT22;18309;43.658;1.312;2022-09-09T17:06:11;24.70;91.30
31729;DHT22;18309;43.658;1.312;2022-09-09T17:08:38;24.60;91.00
31729;DHT22;18309;43.658;1.312;2022-09-09T17:11:17;24.50;90.70
31729;DHT22;18309;43.658;1.312;2022-09-09T17:13:45;24.50;90.60
31729;DHT22;18309;43.658;1.312;2022-09-09T17:16:13;24.40;90.10
31729;DHT22;18309;43.658;1.312;2022-09-09T17:18:40;24.40;90.10
31729;DHT22;18309;43.658;1.312;2022-09-09T17:21:08;24.40;90.00
31729;DHT22;18309;43.658;1.312;2022-09-09T17:23:36;24.40;90.10
31729;DHT22;18309;43.658;1.312;2022-09-09T17:26:04;24.40;90.20
31729;DHT22;18309;43.658;1.312;2022-09-09T17:28:31;24.30;90.10
31729;DHT22;18309;43.658;1.312;2022-09-09T17:31:01;24.20;90.10
31729;DHT22;18309;43.658;1.312;2022-09-09T17:33:31;24.10;88.80
31729;DHT22;18309;43.658;1.312;2022-09-09T17:36:05;24.00;89.50
31729;DHT22;18309;43.658;1.312;2022-09-09T17:38:32;24.00;88.90
31729;DHT22;18309;43.658;1.312;2022-09-09T17:41:18;24.00;89.10
31729;DHT22;18309;43.658;1.312;2022-09-09T17:43:46;24.00;88.20
31729;DHT22;18309;43.658;1.312;2022-09-09T17:46:26;24.00;88.20
31729;DHT22;18309;43.658;1.312;2022-09-09T17:48:56;24.00;88.00
31729;DHT22;18309;43.658;1.312;2022-09-09T17:51:23;24.00;88.10
31729;DHT22;18309;43.658;1.312;2022-09-09T17:53:51;23.80;87.90
31729;DHT22;18309;43.658;1.312;2022-09-09T17:56:19;23.70;87.50
31729;DHT22;18309;43.658;1.312;2022-09-09T17:58:46;23.70;87.80
31729;DHT22;18309;43.658;1.312;2022-09-09T18:01:15;23.60;87.50
31729;DHT22;18309;43.658;1.312;2022-09-09T18:03:43;23.50;87.30
31729;DHT22;18309;43.658;1.312;2022-09-09T18:06:11;23.60;87.50
31729;DHT22;18309;43.658;1.312;2022-09-09T18:08:41;23.50;86.90
31729;DHT22;18309;43.658;1.312;2022-09-09T18:11:08;23.40;87.30
31729;DHT22;18309;43.658;1.312;2022-09-09T18:13:34;23.40;87.20
31729;DHT22;18309;43.658;1.312;2022-09-09T18:16:01;23.30;87.50
31729;DHT22;18309;43.658;1.312;2022-09-09T18:18:28;23.20;87.90